createdAt,value
2019-05-07T00:01:05.606Z,99.90
2019-05-07T00:03:34.786Z,99.90
2019-05-07T00:06:04.189Z,99.90
2019-05-07T00:08:33.085Z,99.90
2019-05-07T00:11:02.401Z,99.90
2019-05-07T00:13:33.274Z,99.90
2019-05-07T00:16:02.599Z,99.90
2019-05-07T00:18:32.279Z,99.90
2019-05-07T00:21:03.467Z,99.90
2019-05-07T00:23:32.613Z,99.90
2019-05-07T00:26:03.723Z,99.90
2019-05-07T00:28:32.678Z,99.90
2019-05-07T00:31:02.890Z,99.90
2019-05-07T00:33:32.965Z,99.90
2019-05-07T00:36:13.937Z,99.90
2019-05-07T00:38:45.635Z,99.90
2019-05-07T00:41:42.968Z,99.90
2019-05-07T00:44:13.662Z,99.90
2019-05-07T00:46:42.810Z,99.90
2019-05-07T00:49:12.721Z,99.90
2019-05-07T00:51:42.442Z,99.90
2019-05-07T00:54:12.317Z,99.90
2019-05-07T00:56:42.864Z,99.90
2019-05-07T00:59:13.086Z,99.90
2019-05-07T01:01:43.235Z,99.90
2019-05-07T01:04:12.673Z,99.90
2019-05-07T01:06:42.440Z,99.90
2019-05-07T01:09:12.347Z,99.90
2019-05-07T01:11:42.913Z,99.90
2019-05-07T01:14:12.443Z,99.90
2019-05-07T01:16:42.059Z,99.90
2019-05-07T01:19:12.607Z,99.90
2019-05-07T01:21:43.316Z,99.90
2019-05-07T01:24:12.447Z,99.90
2019-05-07T01:26:42.621Z,99.90
2019-05-07T01:29:12.827Z,99.90
2019-05-07T01:31:48.918Z,99.90
2019-05-07T01:34:32.484Z,99.90
2019-05-07T01:37:02.695Z,99.90
2019-05-07T01:39:32.630Z,99.90
2019-05-07T01:42:02.306Z,99.90
2019-05-07T01:44:32.534Z,99.90
2019-05-07T01:47:02.583Z,99.90
2019-05-07T01:49:33.087Z,99.90
2019-05-07T01:52:02.799Z,99.90
2019-05-07T01:54:33.352Z,99.90
2019-05-07T01:57:02.993Z,99.90
2019-05-07T01:59:32.346Z,99.90
2019-05-07T02:02:08.084Z,99.90
2019-05-07T02:04:56.025Z,99.90
2019-05-07T02:07:35.201Z,99.90
2019-05-07T02:10:23.692Z,99.90
2019-05-07T02:12:52.743Z,99.90
2019-05-07T02:15:22.613Z,99.90
2019-05-07T02:17:52.547Z,99.90
2019-05-07T02:20:22.551Z,99.90
2019-05-07T02:22:53.196Z,99.90
2019-05-07T02:25:22.420Z,99.90
2019-05-07T02:27:52.847Z,99.90
2019-05-07T02:30:23.765Z,99.90
2019-05-07T02:32:53.961Z,99.90
2019-05-07T02:35:23.698Z,99.90
2019-05-07T02:38:02.887Z,99.90
2019-05-07T02:40:39.673Z,99.90
2019-05-07T02:43:08.638Z,99.90
2019-05-07T02:45:53.583Z,99.90
2019-05-07T02:48:25.460Z,99.90
2019-05-07T02:51:00.037Z,99.90
2019-05-07T02:53:35.371Z,99.90
2019-05-07T02:56:04.647Z,99.90
2019-05-07T02:58:33.583Z,99.90
2019-05-07T03:01:04.690Z,99.90
2019-05-07T03:03:33.706Z,99.90
2019-05-07T03:06:03.155Z,99.90
2019-05-07T03:08:33.279Z,99.90
2019-05-07T03:11:03.318Z,99.90
2019-05-07T03:13:33.640Z,99.90
2019-05-07T03:16:03.933Z,99.90
2019-05-07T03:18:33.577Z,99.90
2019-05-07T03:21:14.123Z,99.90
2019-05-07T03:23:54.006Z,99.90
2019-05-07T03:26:25.239Z,99.90
2019-05-07T03:28:59.123Z,99.90
2019-05-07T03:31:47.964Z,99.90
2019-05-07T03:34:38.476Z,99.90
2019-05-07T03:37:08.590Z,99.90
2019-05-07T03:39:37.529Z,99.90
2019-05-07T03:42:06.438Z,99.90
2019-05-07T03:45:03.400Z,99.90
2019-05-07T03:47:36.201Z,99.90
2019-05-07T03:50:08.438Z,99.90
2019-05-07T03:52:37.430Z,99.90
2019-05-07T03:55:07.328Z,99.90
2019-05-07T03:57:36.237Z,99.90
2019-05-07T04:00:06.486Z,99.90
2019-05-07T04:02:35.322Z,99.90
2019-05-07T04:05:05.823Z,99.90
2019-05-07T04:07:34.729Z,99.90
2019-05-07T04:10:04.705Z,99.90
2019-05-07T04:12:34.393Z,99.90
2019-05-07T04:15:03.715Z,99.90
2019-05-07T04:17:33.990Z,99.90
2019-05-07T04:20:04.379Z,99.90
2019-05-07T04:22:34.843Z,99.90
2019-05-07T04:25:19.210Z,99.90
2019-05-07T04:27:55.809Z,99.90
2019-05-07T04:30:24.884Z,99.90
2019-05-07T04:32:55.385Z,99.90
2019-05-07T04:35:36.533Z,99.90
2019-05-07T04:38:06.908Z,99.90
2019-05-07T04:40:36.521Z,99.90
2019-05-07T04:43:05.452Z,99.90
2019-05-07T04:45:34.377Z,99.90
2019-05-07T04:48:03.436Z,99.90
2019-05-07T04:50:42.682Z,99.90
2019-05-07T04:53:05.079Z,99.90
2019-05-07T04:55:34.379Z,99.90
2019-05-07T04:58:08.303Z,99.90
2019-05-07T05:00:34.152Z,99.90
2019-05-07T05:03:19.033Z,99.90
2019-05-07T05:05:47.974Z,99.90
2019-05-07T05:08:16.878Z,99.90
2019-05-07T05:10:46.052Z,99.90
2019-05-07T05:13:14.898Z,99.90
2019-05-07T05:15:43.809Z,99.90
2019-05-07T05:18:13.023Z,99.90
2019-05-07T05:21:02.792Z,99.90
2019-05-07T05:23:47.106Z,99.90
2019-05-07T05:26:16.476Z,99.90
2019-05-07T05:28:45.469Z,99.90
2019-05-07T05:31:14.461Z,99.90
2019-05-07T05:33:43.318Z,99.90
2019-05-07T05:36:12.792Z,99.90
2019-05-07T05:38:42.519Z,99.90
2019-05-07T05:41:12.320Z,99.90
2019-05-07T05:43:55.860Z,99.90
2019-05-07T05:46:26.123Z,99.90
2019-05-07T05:48:54.980Z,99.90
2019-05-07T05:51:52.567Z,99.90
2019-05-07T05:54:42.615Z,99.90
2019-05-07T05:57:27.495Z,99.90
2019-05-07T06:00:14.317Z,99.90
2019-05-07T06:03:02.664Z,99.90
2019-05-07T06:05:52.156Z,99.90
2019-05-07T06:08:44.366Z,99.90
2019-05-07T06:11:24.053Z,99.90
2019-05-07T06:14:04.920Z,99.90
2019-05-07T06:16:37.772Z,99.90
2019-05-07T06:19:32.837Z,99.90
2019-05-07T06:22:26.506Z,99.90
2019-05-07T06:25:15.218Z,99.90
2019-05-07T06:27:44.773Z,99.90
2019-05-07T06:30:14.587Z,99.90
2019-05-07T06:32:43.424Z,99.90
2019-05-07T06:35:12.531Z,99.90
2019-05-07T06:37:42.904Z,99.90
2019-05-07T06:40:35.116Z,99.90
2019-05-07T06:43:35.290Z,99.90
2019-05-07T06:46:04.757Z,99.90
2019-05-07T06:48:41.871Z,99.90
2019-05-07T06:51:04.505Z,99.90
2019-05-07T06:53:34.008Z,99.90
2019-05-07T06:56:03.578Z,99.90
2019-05-07T06:58:46.853Z,99.90
2019-05-07T07:01:33.633Z,99.90
2019-05-07T07:04:13.540Z,99.90
2019-05-07T07:07:01.962Z,99.90
2019-05-07T07:09:39.772Z,99.90
2019-05-07T07:12:12.983Z,99.90
2019-05-07T07:14:42.416Z,99.90
2019-05-07T07:17:12.960Z,99.90
2019-05-07T07:19:42.816Z,99.90
2019-05-07T07:22:12.990Z,99.90
2019-05-07T07:24:42.600Z,99.90
2019-05-07T07:27:13.139Z,99.90
2019-05-07T07:29:46.940Z,99.90
2019-05-07T07:32:17.998Z,99.90
2019-05-07T07:34:48.961Z,99.90
2019-05-07T07:37:37.396Z,99.90
2019-05-07T07:40:32.875Z,99.90
2019-05-07T07:43:04.824Z,99.90
2019-05-07T07:45:32.673Z,99.90
2019-05-07T07:48:02.243Z,99.90
2019-05-07T07:50:33.033Z,99.90
2019-05-07T07:53:02.668Z,99.90
2019-05-07T07:55:42.484Z,99.90
2019-05-07T07:58:22.166Z,99.90
2019-05-07T08:01:12.279Z,99.70
2019-05-07T08:03:41.851Z,93.00
2019-05-07T08:06:11.965Z,96.40
2019-05-07T08:08:42.477Z,97.00
2019-05-07T08:11:12.674Z,93.80
2019-05-07T08:13:42.472Z,89.40
2019-05-07T08:16:12.958Z,87.90
2019-05-07T08:18:43.541Z,84.60
2019-05-07T08:21:12.841Z,79.80
2019-05-07T08:23:42.381Z,79.00
2019-05-07T08:26:12.677Z,78.20
2019-05-07T08:28:42.009Z,74.90
2019-05-07T08:31:42.887Z,75.00
2019-05-07T08:34:23.570Z,77.30
2019-05-07T08:36:52.759Z,71.80
2019-05-07T08:39:24.716Z,77.00
2019-05-07T08:41:52.812Z,78.70
2019-05-07T08:44:25.235Z,76.50
2019-05-07T08:47:05.911Z,80.50
2019-05-07T08:49:39.861Z,76.00
2019-05-07T08:52:06.368Z,76.20
2019-05-07T08:54:35.289Z,76.20
2019-05-07T08:57:04.521Z,76.10
2019-05-07T08:59:34.916Z,81.10
2019-05-07T09:02:05.047Z,77.70
2019-05-07T09:04:33.960Z,81.90
2019-05-07T09:07:03.056Z,82.30
2019-05-07T09:09:32.549Z,79.40
2019-05-07T09:12:02.962Z,79.80
2019-05-07T09:14:32.373Z,79.50
2019-05-07T09:17:02.489Z,78.70
2019-05-07T09:19:40.602Z,78.40
2019-05-07T09:22:03.349Z,79.60
2019-05-07T09:24:33.330Z,78.00
2019-05-07T09:27:25.318Z,77.70
2019-05-07T09:30:09.007Z,76.50
2019-05-07T09:32:54.404Z,79.50
2019-05-07T09:35:27.389Z,77.60
2019-05-07T09:37:56.253Z,83.40
2019-05-07T09:40:25.326Z,80.20
2019-05-07T09:42:54.330Z,80.90
2019-05-07T09:45:23.185Z,80.30
2019-05-07T09:47:52.343Z,77.40
2019-05-07T09:50:23.086Z,83.50
2019-05-07T09:52:52.093Z,81.00
2019-05-07T09:55:23.367Z,82.80
2019-05-07T09:57:52.756Z,85.00
2019-05-07T10:00:22.802Z,82.30
2019-05-07T10:02:52.851Z,80.70
2019-05-07T10:05:21.948Z,80.30
2019-05-07T10:07:52.594Z,79.60
2019-05-07T10:10:22.298Z,77.00
2019-05-07T10:13:01.896Z,78.40
2019-05-07T10:15:32.947Z,78.60
2019-05-07T10:18:15.628Z,80.60
2019-05-07T10:20:44.621Z,80.20
2019-05-07T10:23:22.391Z,79.90
2019-05-07T10:25:52.258Z,81.90
2019-05-07T10:28:22.728Z,79.00
2019-05-07T10:30:52.628Z,75.10
2019-05-07T10:33:22.898Z,74.60
2019-05-07T10:35:52.855Z,78.30
2019-05-07T10:38:22.092Z,75.50
2019-05-07T10:40:51.104Z,71.10
2019-05-07T10:43:22.098Z,75.20
2019-05-07T10:46:12.765Z,75.20
2019-05-07T10:48:55.568Z,72.50
2019-05-07T10:51:25.189Z,72.50
2019-05-07T10:53:54.266Z,60.30
2019-05-07T10:56:23.185Z,61.70
2019-05-07T10:58:52.366Z,60.80
2019-05-07T11:01:29.052Z,58.50
2019-05-07T11:03:58.253Z,63.30
2019-05-07T11:06:27.116Z,64.70
2019-05-07T11:08:56.339Z,63.30
2019-05-07T11:11:25.284Z,59.20
2019-05-07T11:13:56.097Z,59.10
2019-05-07T11:16:28.237Z,55.00
2019-05-07T11:18:57.538Z,54.00
2019-05-07T11:21:33.245Z,55.30
2019-05-07T11:24:03.526Z,53.70
2019-05-07T11:26:33.110Z,54.50
2019-05-07T11:29:02.477Z,55.00
2019-05-07T11:31:33.167Z,54.90
2019-05-07T11:34:02.934Z,54.70
2019-05-07T11:36:34.369Z,52.00
2019-05-07T11:39:05.273Z,55.40
2019-05-07T11:41:49.002Z,54.10
2019-05-07T11:44:23.004Z,52.30
2019-05-07T11:47:12.172Z,55.40
2019-05-07T11:49:58.677Z,54.20
2019-05-07T11:52:35.364Z,56.40
2019-05-07T11:55:03.152Z,54.10
2019-05-07T11:57:32.424Z,53.00
2019-05-07T12:00:02.790Z,54.80
2019-05-07T12:02:32.094Z,53.70
2019-05-07T12:05:01.982Z,52.70
2019-05-07T12:07:32.784Z,54.90
2019-05-07T12:10:04.726Z,51.70
2019-05-07T12:12:32.656Z,52.00
2019-05-07T12:15:02.435Z,51.60
2019-05-07T12:17:31.708Z,54.30
2019-05-07T12:20:02.418Z,55.10
2019-05-07T12:22:46.953Z,57.70
2019-05-07T12:25:17.112Z,55.00
2019-05-07T12:27:46.616Z,56.70
2019-05-07T12:30:22.135Z,56.20
2019-05-07T12:32:58.566Z,57.20
2019-05-07T12:35:27.505Z,55.40
2019-05-07T12:37:56.365Z,57.20
2019-05-07T12:40:25.400Z,54.40
2019-05-07T12:42:54.387Z,56.00
2019-05-07T12:45:23.345Z,57.80
2019-05-07T12:47:52.948Z,54.70
2019-05-07T12:50:22.125Z,55.30
2019-05-07T12:52:56.649Z,56.10
2019-05-07T12:55:36.266Z,58.00
2019-05-07T12:58:05.267Z,57.20
2019-05-07T13:00:52.731Z,58.90
2019-05-07T13:03:33.447Z,59.20
2019-05-07T13:06:02.643Z,60.30
2019-05-07T13:08:32.991Z,59.30
2019-05-07T13:11:03.019Z,58.20
2019-05-07T13:13:32.426Z,56.80
2019-05-07T13:16:02.990Z,59.70
2019-05-07T13:18:32.566Z,59.30
2019-05-07T13:21:02.452Z,61.10
2019-05-07T13:23:32.771Z,59.20
2019-05-07T13:26:02.596Z,60.20
2019-05-07T13:28:31.904Z,57.60
2019-05-07T13:31:02.363Z,59.20
2019-05-07T13:33:34.630Z,58.30
2019-05-07T13:36:04.200Z,59.60
2019-05-07T13:38:42.549Z,60.70
2019-05-07T13:41:22.680Z,59.50
2019-05-07T13:44:16.729Z,59.70
2019-05-07T13:46:46.733Z,60.00
2019-05-07T13:49:15.577Z,59.30
2019-05-07T13:51:44.971Z,60.40
2019-05-07T13:54:14.116Z,63.60
2019-05-07T13:56:43.116Z,62.00
2019-05-07T13:59:13.280Z,63.00
2019-05-07T14:01:48.241Z,60.80
2019-05-07T14:04:17.358Z,64.50
2019-05-07T14:06:46.567Z,62.00
2019-05-07T14:09:19.188Z,65.90
2019-05-07T14:11:48.624Z,64.50
2019-05-07T14:14:17.676Z,62.00
2019-05-07T14:16:46.981Z,62.50
2019-05-07T14:19:16.425Z,63.50
2019-05-07T14:21:45.734Z,61.70
2019-05-07T14:24:15.121Z,59.90
2019-05-07T14:26:44.062Z,62.40
2019-05-07T14:29:13.301Z,60.80
2019-05-07T14:31:42.652Z,63.20
2019-05-07T14:34:40.064Z,62.90
2019-05-07T14:37:19.023Z,65.90
2019-05-07T14:39:48.053Z,64.30
2019-05-07T14:42:24.585Z,63.40
2019-05-07T14:44:53.599Z,61.90
2019-05-07T14:47:22.577Z,62.10
2019-05-07T14:49:52.986Z,62.80
2019-05-07T14:52:30.261Z,65.50
2019-05-07T14:54:53.314Z,66.20
2019-05-07T14:57:22.417Z,62.90
2019-05-07T14:59:52.372Z,64.00
2019-05-07T15:02:23.456Z,61.60
2019-05-07T15:04:52.650Z,62.80
2019-05-07T15:07:22.668Z,66.20
2019-05-07T15:09:52.505Z,64.20
2019-05-07T15:12:23.333Z,66.00
2019-05-07T15:14:52.738Z,62.50
2019-05-07T15:17:32.702Z,62.80
2019-05-07T15:20:02.774Z,60.10
2019-05-07T15:22:48.644Z,58.80
2019-05-07T15:25:33.417Z,59.10
2019-05-07T15:28:02.432Z,60.50
2019-05-07T15:30:41.784Z,64.10
2019-05-07T15:33:12.733Z,59.70
2019-05-07T15:35:42.441Z,61.80
2019-05-07T15:38:11.730Z,63.40
2019-05-07T15:40:42.321Z,60.80
2019-05-07T15:43:12.857Z,60.00
2019-05-07T15:45:42.100Z,61.10
2019-05-07T15:48:12.662Z,60.30
2019-05-07T15:50:42.843Z,58.50
2019-05-07T15:53:43.789Z,59.90
2019-05-07T15:56:19.200Z,61.00
2019-05-07T15:58:48.213Z,63.80
2019-05-07T16:01:17.060Z,60.60
2019-05-07T16:03:46.510Z,63.30
2019-05-07T16:06:15.714Z,63.20
2019-05-07T16:08:49.325Z,64.40
2019-05-07T16:11:18.430Z,67.80
2019-05-07T16:14:08.348Z,63.70
2019-05-07T16:16:40.204Z,62.30
2019-05-07T16:19:13.822Z,63.70
2019-05-07T16:21:42.739Z,64.10
2019-05-07T16:24:12.297Z,66.70
2019-05-07T16:26:41.851Z,63.00
2019-05-07T16:29:13.290Z,69.00
2019-05-07T16:31:43.540Z,69.10
2019-05-07T16:34:12.661Z,63.00
2019-05-07T16:36:41.946Z,63.00
2019-05-07T16:39:12.079Z,61.20
2019-05-07T16:41:42.314Z,62.90
2019-05-07T16:44:12.223Z,66.30
2019-05-07T16:46:42.152Z,68.00
2019-05-07T16:49:12.068Z,69.10
2019-05-07T16:51:44.175Z,66.50
2019-05-07T16:54:12.235Z,61.00
2019-05-07T16:57:02.931Z,57.20
2019-05-07T16:59:32.344Z,57.70
2019-05-07T17:02:05.551Z,61.20
2019-05-07T17:04:34.492Z,66.60
2019-05-07T17:07:05.065Z,63.00
2019-05-07T17:09:35.476Z,61.70
2019-05-07T17:12:07.194Z,58.80
2019-05-07T17:14:36.470Z,59.60
2019-05-07T17:17:05.671Z,58.20
2019-05-07T17:19:34.604Z,63.40
2019-05-07T17:22:06.344Z,67.30
2019-05-07T17:24:34.477Z,64.70
2019-05-07T17:27:22.979Z,70.10
2019-05-07T17:29:51.986Z,71.10
2019-05-07T17:32:22.956Z,73.10
2019-05-07T17:34:52.885Z,77.50
2019-05-07T17:37:22.630Z,83.60
2019-05-07T17:39:52.309Z,81.70
2019-05-07T17:42:22.383Z,78.10
2019-05-07T17:44:51.881Z,76.10
2019-05-07T17:47:21.909Z,85.50
2019-05-07T17:49:52.686Z,91.10
2019-05-07T17:52:22.714Z,91.60
2019-05-07T17:54:52.801Z,98.70
2019-05-07T17:57:22.779Z,99.90
2019-05-07T17:59:52.571Z,99.90
2019-05-07T18:02:46.713Z,99.90
2019-05-07T18:05:15.821Z,99.90
2019-05-07T18:07:44.741Z,99.90
2019-05-07T18:10:13.726Z,99.90
2019-05-07T18:12:42.833Z,99.90
2019-05-07T18:15:12.642Z,99.90
2019-05-07T18:18:02.970Z,99.90
2019-05-07T18:20:32.791Z,99.90
2019-05-07T18:23:02.658Z,99.90
2019-05-07T18:25:32.505Z,99.90
2019-05-07T18:28:01.911Z,99.90
2019-05-07T18:30:32.670Z,99.90
2019-05-07T18:33:25.055Z,99.90
2019-05-07T18:35:54.341Z,99.90
2019-05-07T18:38:23.332Z,99.90
2019-05-07T18:40:52.811Z,99.90
2019-05-07T18:43:22.598Z,99.90
2019-05-07T18:45:51.843Z,99.90
2019-05-07T18:48:22.406Z,99.90
2019-05-07T18:50:52.158Z,99.90
2019-05-07T18:53:22.658Z,99.90
2019-05-07T18:55:51.803Z,99.90
2019-05-07T18:58:22.439Z,99.90
2019-05-07T19:00:55.086Z,99.90
2019-05-07T19:03:25.476Z,99.90
2019-05-07T19:05:54.966Z,99.90
2019-05-07T19:08:23.897Z,99.90
2019-05-07T19:10:52.833Z,99.90
2019-05-07T19:13:22.300Z,99.90
2019-05-07T19:15:52.723Z,99.90
2019-05-07T19:18:22.981Z,99.90
2019-05-07T19:20:53.089Z,99.90
2019-05-07T19:23:22.605Z,99.90
2019-05-07T19:25:52.427Z,99.90
2019-05-07T19:28:22.582Z,99.90
2019-05-07T19:30:52.856Z,99.90
2019-05-07T19:33:26.770Z,99.90
2019-05-07T19:35:52.949Z,99.90
2019-05-07T19:38:22.072Z,99.90
2019-05-07T19:40:52.823Z,99.90
2019-05-07T19:43:21.821Z,99.90
2019-05-07T19:45:52.373Z,99.90
2019-05-07T19:48:23.104Z,99.90
2019-05-07T19:50:52.747Z,99.90
2019-05-07T19:53:23.462Z,99.90
2019-05-07T19:56:08.244Z,99.90
2019-05-07T19:58:37.193Z,99.90
2019-05-07T20:01:07.597Z,99.90
2019-05-07T20:03:36.523Z,99.90
2019-05-07T20:06:05.556Z,99.90
2019-05-07T20:08:34.540Z,99.90
2019-05-07T20:11:22.513Z,99.90
2019-05-07T20:13:52.382Z,99.90
2019-05-07T20:16:23.162Z,99.90
2019-05-07T20:18:52.558Z,99.90
2019-05-07T20:21:22.863Z,99.90
2019-05-07T20:23:52.712Z,99.90
2019-05-07T20:26:23.199Z,99.90
2019-05-07T20:28:52.671Z,99.90
2019-05-07T20:31:22.674Z,99.90
2019-05-07T20:33:53.116Z,99.90
2019-05-07T20:36:22.404Z,99.90
2019-05-07T20:38:52.211Z,99.90
2019-05-07T20:41:23.328Z,99.90
2019-05-07T20:43:52.447Z,99.90
2019-05-07T20:46:21.505Z,99.90
2019-05-07T20:48:52.472Z,99.90
2019-05-07T20:51:22.957Z,99.90
2019-05-07T20:54:16.600Z,99.90
2019-05-07T20:56:51.899Z,99.90
2019-05-07T20:59:21.952Z,99.90
2019-05-07T21:01:52.673Z,99.90
2019-05-07T21:04:22.303Z,99.90
2019-05-07T21:06:52.501Z,99.90
2019-05-07T21:09:22.193Z,99.90
2019-05-07T21:11:51.542Z,99.90
2019-05-07T21:14:22.646Z,99.90
2019-05-07T21:16:51.891Z,99.90
2019-05-07T21:19:22.325Z,99.90
2019-05-07T21:21:51.822Z,99.90
2019-05-07T21:24:22.580Z,99.90
2019-05-07T21:26:53.041Z,99.90
2019-05-07T21:29:22.619Z,99.90
2019-05-07T21:31:52.415Z,99.90
2019-05-07T21:34:23.061Z,99.90
2019-05-07T21:36:52.500Z,99.90
2019-05-07T21:39:22.409Z,99.90
2019-05-07T21:41:52.014Z,99.90
2019-05-07T21:44:25.037Z,99.90
2019-05-07T21:46:51.928Z,99.90
2019-05-07T21:49:22.738Z,99.90
2019-05-07T21:51:54.466Z,99.90
2019-05-07T21:54:35.421Z,99.90
2019-05-07T21:57:22.297Z,99.90
2019-05-07T22:00:12.663Z,99.90
2019-05-07T22:02:41.964Z,99.90
2019-05-07T22:05:11.839Z,99.90
2019-05-07T22:07:41.046Z,99.90
2019-05-07T22:10:12.642Z,99.90
2019-05-07T22:12:42.780Z,99.90
2019-05-07T22:15:13.112Z,99.90
2019-05-07T22:17:44.337Z,99.90
2019-05-07T22:20:13.539Z,99.90
2019-05-07T22:22:45.924Z,99.90
2019-05-07T22:25:15.080Z,99.90
2019-05-07T22:27:44.141Z,99.90
2019-05-07T22:30:18.353Z,99.90
2019-05-07T22:32:58.132Z,99.90
2019-05-07T22:35:31.061Z,99.90
2019-05-07T22:38:00.446Z,99.90
2019-05-07T22:40:29.417Z,99.90
2019-05-07T22:42:58.407Z,99.90
2019-05-07T22:45:27.410Z,99.90
2019-05-07T22:47:56.301Z,99.90
2019-05-07T22:50:25.370Z,99.90
2019-05-07T22:52:54.575Z,99.90
2019-05-07T22:55:23.529Z,99.90
2019-05-07T22:58:06.815Z,99.90
2019-05-07T23:00:42.801Z,99.90
2019-05-07T23:03:12.432Z,99.90
2019-05-07T23:05:42.263Z,99.90
2019-05-07T23:08:12.829Z,99.90
2019-05-07T23:10:44.444Z,99.90
2019-05-07T23:13:13.084Z,99.90
2019-05-07T23:15:42.938Z,99.90
2019-05-07T23:18:12.987Z,99.90
2019-05-07T23:20:42.727Z,99.90
2019-05-07T23:23:13.876Z,99.90
2019-05-07T23:25:43.105Z,99.90
2019-05-07T23:28:12.616Z,99.90
2019-05-07T23:30:42.411Z,99.90
2019-05-07T23:33:12.923Z,99.90
2019-05-07T23:35:42.232Z,99.90
2019-05-07T23:38:12.952Z,99.90
2019-05-07T23:41:02.140Z,99.90
2019-05-07T23:43:31.936Z,99.90
2019-05-07T23:46:02.231Z,99.90
2019-05-07T23:48:32.145Z,99.90
2019-05-07T23:51:02.095Z,99.90
2019-05-07T23:53:31.301Z,99.90
2019-05-07T23:56:02.648Z,99.90
2019-05-07T23:58:32.651Z,99.90
